Grande Italia — IBTF — position and weather

sailwx.info

Track history (hours):
 
Tides and Currents Weather Stations Pressure Air Temp Water Temp Dewpoint Dewpoint Depression Visibility Wind Speed Wind Dir Waves Ship Positions

Grande Italia

Last reported at 2014-Aug-31 09:18 UTC. Time now 2014-Sep-01 13:50 UTC.
Position N 40°43' E 029°28'.

Length 177 m; draft 6.2 m.

Type: Cargo ship. MMSI: 247039300.

Date/timePositionNaut miles runAvg speedWind from/ knotsBaromVisibWave heightAir tempDewpointWater temp
2014-Aug-31 09:18N 40°43' E 029°28'2 2.2
2014-Aug-31 08:33N 40°43' E 029°26'4 3.1
2014-Aug-31 07:23N 40°43' E 029°21'1 0.6
2014-Aug-31 06:11N 40°42' E 029°20'0 0.0
2014-Aug-31 05:29N 40°42' E 029°20'0 0.0
2014-Aug-31 03:23N 40°42' E 029°20'0 0.0
2014-Aug-31 02:11N 40°42' E 029°20'0 0.0
2014-Aug-31 01:23N 40°42' E 029°20'0 0.0
2014-Aug-31 00:23N 40°42' E 029°20'0 0.0
2014-Aug-30 23:29N 40°42' E 029°20'0 0.0
2014-Aug-30 22:29N 40°42' E 029°20'0 0.0
2014-Aug-30 19:05N 40°42' E 029°20'0 0.0
2014-Aug-30 14:08N 40°42' E 029°20'0 0.0
2014-Aug-30 13:32N 40°42' E 029°20'0 0.0
2014-Aug-30 12:20N 40°42' E 029°20'0 0.0
2014-Aug-30 11:08N 40°42' E 029°20'0 0.0
2014-Aug-30 10:32N 40°42' E 029°20'0 0.0
2014-Aug-30 07:20N 40°42' E 029°20'0 0.0
2014-Aug-30 06:08N 40°42' E 029°20'0 0.0
2014-Aug-30 05:20N 40°42' E 029°20'0 0.0
2014-Aug-30 02:14N 40°42' E 029°20'0 0.0
2014-Aug-30 01:26N 40°42' E 029°20'0 0.0
2014-Aug-30 00:26N 40°42' E 029°20'0 0.0
2014-Aug-29 23:32N 40°42' E 029°20'0 0.0
2014-Aug-29 21:32N 40°42' E 029°20'0 0.0
2014-Aug-29 19:20N 40°42' E 029°20'0 0.0
2014-Aug-29 18:20N 40°42' E 029°20'0 0.0
2014-Aug-29 17:14N 40°42' E 029°20'0 0.0
2014-Aug-29 15:20N 40°42' E 029°20'0 0.0
2014-Aug-29 14:14N 40°42' E 029°20'0 0.0
2014-Aug-29 12:32N 40°42' E 029°20'0 0.1
2014-Aug-29 11:26N 40°42' E 029°20'0 0.0
2014-Aug-29 10:32N 40°42' E 029°20'0 0.0
2014-Aug-29 09:08N 40°42' E 029°20'0 0.0
2014-Aug-29 08:32N 40°42' E 029°20'0 0.0
2014-Aug-29 07:26N 40°42' E 029°20'0 0.0
2014-Aug-29 06:26N 40°42' E 029°20'0 0.0
2014-Aug-29 03:20N 40°42' E 029°20'0 0.0
2014-Aug-29 00:08N 40°42' E 029°20'0 0.1
2014-Aug-28 23:32N 40°42' E 029°20'0 0.0
2014-Aug-28 22:26N 40°42' E 029°20'0 0.0
2014-Aug-28 19:26N 40°42' E 029°20'0 0.0
2014-Aug-28 18:20N 40°42' E 029°20'0 0.0
2014-Aug-28 17:26N 40°42' E 029°20'0 0.0
2014-Aug-28 16:20N 40°42' E 029°20'0 0.0
2014-Aug-28 15:20N 40°42' E 029°20'0 0.0
2014-Aug-28 14:26N 40°42' E 029°20'0 0.0
2014-Aug-28 13:26N 40°42' E 029°20'0 0.0
2014-Aug-28 11:20N 40°42' E 029°20'0 0.0
2014-Aug-28 10:32N 40°42' E 029°21'0 0.0
2014-Aug-28 09:26N 40°42' E 029°21'0 0.0
2014-Aug-28 08:26N 40°42' E 029°21'0 0.0
2014-Aug-28 07:20N 40°42' E 029°21'0 0.0
2014-Aug-28 05:32N 40°42' E 029°20'0 0.0
2014-Aug-28 03:20N 40°42' E 029°21'0 0.0
2014-Aug-28 02:26N 40°42' E 029°21'0 0.0
2014-Aug-28 00:08N 40°42' E 029°20'0 0.0
2014-Aug-27 23:32N 40°42' E 029°20'0 0.0
2014-Aug-27 20:08N 40°42' E 029°20'0 0.0
2014-Aug-27 16:32N 40°42' E 029°21'0 0.0
2014-Aug-27 15:14N 40°42' E 029°21'0 0.0
2014-Aug-27 14:32N 40°42' E 029°21'0 0.0
2014-Aug-27 12:26N 40°42' E 029°20'0 0.0
2014-Aug-27 11:26N 40°42' E 029°20'0 0.0
2014-Aug-27 10:14N 40°42' E 029°20'0 0.0
2014-Aug-27 09:14N 40°42' E 029°20'0 0.0
2014-Aug-27 08:08N 40°42' E 029°20'0 0.0
2014-Aug-27 05:32N 40°42' E 029°20'0 0.0
2014-Aug-26 21:08N 40°42' E 029°20'0 0.0
2014-Aug-26 19:32N 40°42' E 029°20'0 0.0
2014-Aug-26 18:20N 40°42' E 029°20'0 0.0
2014-Aug-26 17:29N 40°42' E 029°20'0 0.0
2014-Aug-26 15:17N 40°42' E 029°20'0 0.0
2014-Aug-26 14:17N 40°42' E 029°20'0 0.0
2014-Aug-26 13:32N 40°42' E 029°20'2 1.6
2014-Aug-26 12:33N 40°43' E 029°19'9 8.9
2014-Aug-26 11:31N 40°45' E 029°31'7 0.9
2014-Aug-26 03:21N 40°44' E 029°40'1012.6
2014-Aug-26 02:33N 40°44' E 029°27'1110.7
2014-Aug-26 01:33N 40°43' E 029°13'1615.6
2014-Aug-26 00:33N 40°43' E 028°53'1615.1
2014-Aug-25 23:31N 40°44' E 028°32'7814.8
2014-Aug-25 18:13N 40°28' E 026°51'5712.3
2014-Aug-25 13:33N 39°52' E 025°52'1414.0
2014-Aug-25 12:33N 39°40' E 025°44'2914.3
2014-Aug-25 10:32N 39°14' E 025°27'1914.4
2014-Aug-25 09:12N 38°56' E 025°17'914.3
2014-Aug-25 08:33N 38°48' E 025°12'5714.2
2014-Aug-25 04:33N 37°57' E 024°39'1614.9
2014-Aug-25 03:30N 37°43' E 024°31'1915.3
2014-Aug-25 02:16N 37°26' E 024°20'1114.8
2014-Aug-25 01:29N 37°17' E 024°11'1415.0
2014-Aug-25 00:33N 37°05' E 024°01'1515.1
2014-Aug-24 23:33N 36°53' E 023°50'1515.1
2014-Aug-24 22:33N 36°41' E 023°39'1514.8
2014-Aug-24 21:33N 36°29' E 023°29'1514.2
2014-Aug-24 20:31N 36°16' E 023°19'1414.2
2014-Aug-24 19:33N 36°05' E 023°09'1413.5
2014-Aug-24 18:33N 36°02' E 022°52'34614.9
2014-Aug-23 19:19N 36°11' E 015°44'22814.2
2014-Aug-23 03:17N 37°21' E 011°13'1013.4
2014-Aug-23 02:33N 37°22' E 011°01'1413.6
2014-Aug-23 01:33N 37°14' E 010°47'1514.6
2014-Aug-23 00:33N 37°02' E 010°35'19 3.8
2014-Aug-22 19:31N 36°49' E 010°18'0 0.0
2014-Aug-22 18:22N 36°49' E 010°18'0 0.0
2014-Aug-22 17:31N 36°49' E 010°18'0 0.0
2014-Aug-22 16:31N 36°49' E 010°18'0 0.0
2014-Aug-22 15:31N 36°49' E 010°18'0 0.0
2014-Aug-22 14:31N 36°49' E 010°18'0 0.0
2014-Aug-22 13:25N 36°49' E 010°18'0 0.0
2014-Aug-22 12:31N 36°49' E 010°18'0 0.0
2014-Aug-22 11:31N 36°49' E 010°18'3 3.2
2014-Aug-22 10:33N 36°48' E 010°21'9 8.9
2014-Aug-22 09:33N 36°54' E 010°28'14317.3
2014-Aug-22 01:19N 38°42' E 012°28'6818.1
2014-Aug-21 21:33N 39°32' E 013°27'1818.0
2014-Aug-21 20:33N 39°45' E 013°43'1818.0
2014-Aug-21 19:33N 39°59' E 013°59'  
Track history (hours):
 
Tides and Currents Weather Stations Pressure Air Temp Water Temp Dewpoint Dewpoint Depression Visibility Wind Speed Wind Dir Waves Ship Positions

Grande Italia

Last reported at 2014-Aug-31 09:18 UTC. Time now 2014-Sep-01 13:50 UTC.
Position N 40°43' E 029°28'.

Length 177 m; draft 6.2 m.

Type: Cargo ship. MMSI: 247039300.

Date/timePositionNaut miles runAvg speedWind from/ knotsBaromVisibWave heightAir tempDewpointWater temp
2014-Aug-31 09:18N 40°43' E 029°28'2 2.2
2014-Aug-31 08:33N 40°43' E 029°26'4 3.1
2014-Aug-31 07:23N 40°43' E 029°21'1 0.6
2014-Aug-31 06:11N 40°42' E 029°20'0 0.0
2014-Aug-31 05:29N 40°42' E 029°20'0 0.0
2014-Aug-31 03:23N 40°42' E 029°20'0 0.0
2014-Aug-31 02:11N 40°42' E 029°20'0 0.0
2014-Aug-31 01:23N 40°42' E 029°20'0 0.0
2014-Aug-31 00:23N 40°42' E 029°20'0 0.0
2014-Aug-30 23:29N 40°42' E 029°20'0 0.0
2014-Aug-30 22:29N 40°42' E 029°20'0 0.0
2014-Aug-30 19:05N 40°42' E 029°20'0 0.0
2014-Aug-30 14:08N 40°42' E 029°20'0 0.0
2014-Aug-30 13:32N 40°42' E 029°20'0 0.0
2014-Aug-30 12:20N 40°42' E 029°20'0 0.0
2014-Aug-30 11:08N 40°42' E 029°20'0 0.0
2014-Aug-30 10:32N 40°42' E 029°20'0 0.0
2014-Aug-30 07:20N 40°42' E 029°20'0 0.0
2014-Aug-30 06:08N 40°42' E 029°20'0 0.0
2014-Aug-30 05:20N 40°42' E 029°20'0 0.0
2014-Aug-30 02:14N 40°42' E 029°20'0 0.0
2014-Aug-30 01:26N 40°42' E 029°20'0 0.0
2014-Aug-30 00:26N 40°42' E 029°20'0 0.0
2014-Aug-29 23:32N 40°42' E 029°20'0 0.0
2014-Aug-29 21:32N 40°42' E 029°20'0 0.0
2014-Aug-29 19:20N 40°42' E 029°20'0 0.0
2014-Aug-29 18:20N 40°42' E 029°20'0 0.0
2014-Aug-29 17:14N 40°42' E 029°20'0 0.0
2014-Aug-29 15:20N 40°42' E 029°20'0 0.0
2014-Aug-29 14:14N 40°42' E 029°20'0 0.0
2014-Aug-29 12:32N 40°42' E 029°20'0 0.1
2014-Aug-29 11:26N 40°42' E 029°20'0 0.0
2014-Aug-29 10:32N 40°42' E 029°20'0 0.0
2014-Aug-29 09:08N 40°42' E 029°20'0 0.0
2014-Aug-29 08:32N 40°42' E 029°20'0 0.0
2014-Aug-29 07:26N 40°42' E 029°20'0 0.0
2014-Aug-29 06:26N 40°42' E 029°20'0 0.0
2014-Aug-29 03:20N 40°42' E 029°20'0 0.0
2014-Aug-29 00:08N 40°42' E 029°20'0 0.1
2014-Aug-28 23:32N 40°42' E 029°20'0 0.0
2014-Aug-28 22:26N 40°42' E 029°20'0 0.0
2014-Aug-28 19:26N 40°42' E 029°20'0 0.0
2014-Aug-28 18:20N 40°42' E 029°20'0 0.0
2014-Aug-28 17:26N 40°42' E 029°20'0 0.0
2014-Aug-28 16:20N 40°42' E 029°20'0 0.0
2014-Aug-28 15:20N 40°42' E 029°20'0 0.0
2014-Aug-28 14:26N 40°42' E 029°20'0 0.0
2014-Aug-28 13:26N 40°42' E 029°20'0 0.0
2014-Aug-28 11:20N 40°42' E 029°20'0 0.0
2014-Aug-28 10:32N 40°42' E 029°21'0 0.0
2014-Aug-28 09:26N 40°42' E 029°21'0 0.0
2014-Aug-28 08:26N 40°42' E 029°21'0 0.0
2014-Aug-28 07:20N 40°42' E 029°21'0 0.0
2014-Aug-28 05:32N 40°42' E 029°20'0 0.0
2014-Aug-28 03:20N 40°42' E 029°21'0 0.0
2014-Aug-28 02:26N 40°42' E 029°21'0 0.0
2014-Aug-28 00:08N 40°42' E 029°20'0 0.0
2014-Aug-27 23:32N 40°42' E 029°20'0 0.0
2014-Aug-27 20:08N 40°42' E 029°20'0 0.0
2014-Aug-27 16:32N 40°42' E 029°21'0 0.0
2014-Aug-27 15:14N 40°42' E 029°21'0 0.0
2014-Aug-27 14:32N 40°42' E 029°21'0 0.0
2014-Aug-27 12:26N 40°42' E 029°20'0 0.0
2014-Aug-27 11:26N 40°42' E 029°20'0 0.0
2014-Aug-27 10:14N 40°42' E 029°20'0 0.0
2014-Aug-27 09:14N 40°42' E 029°20'0 0.0
2014-Aug-27 08:08N 40°42' E 029°20'0 0.0
2014-Aug-27 05:32N 40°42' E 029°20'0 0.0
2014-Aug-26 21:08N 40°42' E 029°20'0 0.0
2014-Aug-26 19:32N 40°42' E 029°20'0 0.0
2014-Aug-26 18:20N 40°42' E 029°20'0 0.0
2014-Aug-26 17:29N 40°42' E 029°20'0 0.0
2014-Aug-26 15:17N 40°42' E 029°20'0 0.0
2014-Aug-26 14:17N 40°42' E 029°20'0 0.0
2014-Aug-26 13:32N 40°42' E 029°20'2 1.6
2014-Aug-26 12:33N 40°43' E 029°19'9 8.9
2014-Aug-26 11:31N 40°45' E 029°31'7 0.9
2014-Aug-26 03:21N 40°44' E 029°40'1012.6
2014-Aug-26 02:33N 40°44' E 029°27'1110.7
2014-Aug-26 01:33N 40°43' E 029°13'1615.6
2014-Aug-26 00:33N 40°43' E 028°53'1615.1
2014-Aug-25 23:31N 40°44' E 028°32'7814.8
2014-Aug-25 18:13N 40°28' E 026°51'5712.3
2014-Aug-25 13:33N 39°52' E 025°52'1414.0
2014-Aug-25 12:33N 39°40' E 025°44'2914.3
2014-Aug-25 10:32N 39°14' E 025°27'1914.4
2014-Aug-25 09:12N 38°56' E 025°17'914.3
2014-Aug-25 08:33N 38°48' E 025°12'5714.2
2014-Aug-25 04:33N 37°57' E 024°39'1614.9
2014-Aug-25 03:30N 37°43' E 024°31'1915.3
2014-Aug-25 02:16N 37°26' E 024°20'1114.8
2014-Aug-25 01:29N 37°17' E 024°11'1415.0
2014-Aug-25 00:33N 37°05' E 024°01'1515.1
2014-Aug-24 23:33N 36°53' E 023°50'1515.1
2014-Aug-24 22:33N 36°41' E 023°39'1514.8
2014-Aug-24 21:33N 36°29' E 023°29'1514.2
2014-Aug-24 20:31N 36°16' E 023°19'1414.2
2014-Aug-24 19:33N 36°05' E 023°09'1413.5
2014-Aug-24 18:33N 36°02' E 022°52'34614.9
2014-Aug-23 19:19N 36°11' E 015°44'22814.2
2014-Aug-23 03:17N 37°21' E 011°13'1013.4
2014-Aug-23 02:33N 37°22' E 011°01'1413.6
2014-Aug-23 01:33N 37°14' E 010°47'1514.6
2014-Aug-23 00:33N 37°02' E 010°35'19 3.8
2014-Aug-22 19:31N 36°49' E 010°18'0 0.0
2014-Aug-22 18:22N 36°49' E 010°18'0 0.0
2014-Aug-22 17:31N 36°49' E 010°18'0 0.0
2014-Aug-22 16:31N 36°49' E 010°18'0 0.0
2014-Aug-22 15:31N 36°49' E 010°18'0 0.0
2014-Aug-22 14:31N 36°49' E 010°18'0 0.0
2014-Aug-22 13:25N 36°49' E 010°18'0 0.0
2014-Aug-22 12:31N 36°49' E 010°18'0 0.0
2014-Aug-22 11:31N 36°49' E 010°18'3 3.2
2014-Aug-22 10:33N 36°48' E 010°21'9 8.9
2014-Aug-22 09:33N 36°54' E 010°28'14317.3
2014-Aug-22 01:19N 38°42' E 012°28'6818.1
2014-Aug-21 21:33N 39°32' E 013°27'1818.0
2014-Aug-21 20:33N 39°45' E 013°43'1818.0
2014-Aug-21 19:33N 39°59' E 013°59'  

Dump ship's entire track history